AirNav   Pilot Hours Calculator
 
 711 users online  

4G5 Monroe County Airport
Woodsfield, Ohio, USA

GOING TO WOODSFIELD?


FAA INFORMATION EFFECTIVE 25 MARCH 2021

Location

FAA Identifier: 4G5
Lat/Long: 39-46-44.5850N 081-06-10.0100W
39-46.743083N 081-06.166833W
39.7790514,-81.1027806
(estimated)
Elevation: 1197.1 ft. / 364.9 m (surveyed)
Variation: 08W (2015)
From city: 1 mile N of WOODSFIELD, OH
Time zone: UTC -4 (UTC -5 during Standard Time)
Zip code: 43793

Airport Operations

Airport use: Open to the public
Activation date: 03/1969
Control tower: no
ARTCC: CLEVELAND CENTER
FSS: CLEVELAND FLIGHT SERVICE STATION
NOTAMs facility: CLE (NOTAM-D service available)
Attendance: IREG
Wind indicator: lighted
Segmented circle: no
Lights: ACTVT REIL RWY 25; MIRL RWY 07/25 - CTAF.
Beacon: white-green (lighted land airport)
Operates sunset to sunrise.

Airport Communications

CTAF/UNICOM: 122.8
WX AWOS-3 at MPG (18 nm E): 119.05 (304-845-2959)
  • APCH/DEP SVC PRVDD BY CLEVELAND ARTCC ON FREQS 126.95/239.30 (BELMONT RCAG).

Nearby radio navigation aids

VOR radial/distance  VOR name  Freq  Var
AIRr230/19.4BELLAIRE VOR/DME117.1007W
JPUr035/23.9PARKERSBURG VOR/DME108.6003W
ZZVr111/37.6ZANESVILLE VOR/DME114.9506W
HLGr227/37.9WHEELING VOR/DME112.2007W

 
NDB name  Hdg/Dist  Freq  Var  ID
CADIZ196/27.823907WCFX -.-. ..-. -..-

Airport Services

Fuel available: 100LL JET-A+
FOR FUEL AFT HRS CALL AMGR CELL.
Parking: tiedowns
Airframe service: NONE
Powerplant service: NONE
Bottled oxygen: NONE
Bulk oxygen: NONE

Runway Information

Runway 7/25

Dimensions: 3805 x 75 ft. / 1160 x 23 m
Surface: asphalt, in fair condition
Weight bearing capacity: 
Single wheel: 18.0
Runway edge lights: medium intensity
Runway edge markings: FADED.
RUNWAY 7  RUNWAY 25
Latitude: 39-46.615627N39-46.870517N
Longitude: 081-06.537858W081-05.795777W
Elevation: 1193.9 ft.1190.7 ft.
Traffic pattern: leftleft
Runway heading: 074 magnetic, 066 true254 magnetic, 246 true
Displaced threshold: 174 ft.no
Markings: nonprecision, in poor conditionnonprecision, in poor condition
Runway end identifier lights: yes
Touchdown point: yes, no lightsyes, no lights
Obstructions: 45 ft. trees, 650 ft. from runway, 270 ft. right of centerline, 10:1 slope to clear
APCH RATIO 18:1 TO DTHR.
10 ft. trees, 201 ft. from runway, 175 ft. left of centerline
0-10 FT TREES & BRUSH, 80-200 FT DIST, 145-250 FT L.

Airport Ownership and Management from official FAA records

Ownership: Publicly-owned
Owner: MONROE COUNTY COMMISSIONERS
101 N MAIN ST
WOODSFIELD, OH 43793-1070
Phone 740-472-1341
Manager: DAVID DALRYMPLE
47073 STATE ROUTE 26
WOODSFIELD, OH 43793-9330
Phone 740-472-1882
CELL 740-213-3106.

Airport Operational Statistics

Aircraft based on the field: 11
Single engine airplanes: 9
Helicopters: 2
    
Aircraft operations: avg 83/week *
58% local general aviation
14% military
14% transient general aviation
14% air taxi
* for 12-month period ending 06 September 2018

Additional Remarks

OCNL DEER, BIRDS, & OTR WILDLIFE ON & INVOF ARPT.
FOR CD CTC CLEVELAND ARTCC AT 440-774-0226.

Instrument Procedures

NOTE: All procedures below are presented as PDF files. If you need a reader for these files, you should download the free Adobe Reader.

NOT FOR NAVIGATION. Please procure official charts for flight.
FAA instrument procedures published for use from 25 March 2021 at 0901Z to 22 April 2021 at 0900z.

 
IAPs - Instrument Approach Procedures
RNAV (GPS) RWY 25   download (269KB)
VOR/DME RWY 25   download (203KB)
NOTE: Special Take-Off Minimums/Departure Procedures apply   download (164KB)

Other nearby airports with instrument procedures:

6G5 - Barnesville-Bradfield Airport (14 nm N)
2P7 - Alderman Airport (18 nm N)
KMPG - Marshall County Airport (18 nm E)
I10 - Noble County Airport (20 nm W)
KCDI - Cambridge Municipal Airport (25 nm NW)
 
Loc | Ops | Rwys | IFR | FBO | Links
Com | Nav | Svcs | Stats | Notes
Area around 4G5 (Monroe County Airport)
 
Road maps at: MapQuest Bing Google
 
Aerial photo
WARNING: Photo may not be current or correct
Aerial photo of 4G5 (Monroe County Airport)
Photo by John Carpenter
Photo taken 13-Nov-2010
looking west.

Do you have a better or more recent aerial photo of Monroe County Airport that you would like to share? If so, please send us your photo.

 
Sectional chart

 
Airport distance calculator
Flying to Monroe County Airport? Find the distance to fly.

From to 4G5

Sunrise and sunset
Times for 13-Apr-2021
 Local
(UTC-4)
 Zulu
(UTC)
Morning civil twilight06:2310:23
Sunrise06:5110:51
Sunset19:5923:59
Evening civil twilight20:2700:27

Current date and time
Zulu (UTC)  13-Apr-2021 04:11:21
Local (UTC-4)  13-Apr-2021 00:11:21
 
METAR
KCDI 
25nm NW 
130355Z AUTO 00000KT 1/2SM FG BKN002 08/08 A2996 RMK AO2 T00840079
KPKB 
30nm SW 
130353Z AUTO 17004KT 10SM FEW070 11/08 A2997 RMK AO2 SLP149 T01060083
KHLG 
31nm NE 
130353Z AUTO 22004KT 10SM FEW044 FEW050 OVC080 11/09 A2995 RMK AO2 SLP145 T01060094
KZZV 
38nm W 
130353Z AUTO 24004KT 10SM CLR 11/09 A2996 RMK AO2 SLP145 T01060094
KAFJ 
43nm NE 
130356Z AUTO 00000KT 1/4SM FG OVC002 07/07 A2997 RMK AO2 SLP153 T00670067
KPHD 
44nm N 
130353Z AUTO 00000KT 10SM OVC034 12/11 A2995 RMK AO2 RAE07 SLP142 P0000 T01170111
TAF
KPKB 
30nm SW 
130205Z 1302/1324 26005KT P6SM VCSH BKN035 FM130300 00000KT P6SM FEW040 FM131000 00000KT 6SM BR SCT250 FM131300 26005KT P6SM SCT040 BKN250
KHLG 
31nm NE 
121720Z 1218/1318 26011KT P6SM -SHRA BKN025 FM122300 28007KT P6SM VCSH BKN035 FM130700 27003KT 6SM BR SCT020 FM131400 27006KT P6SM SCT200
NOTAMs
Click for the latest NOTAMs
NOTAMs are issued by the DoD/FAA and will open in a separate window not controlled by AirNav.

 

 
 

FBO, Fuel Providers, and Aircraft Ground Support

  
 Business Name 
 
 Contact 
 
 Services / Description 
 
Fuel Prices
 
Comments
  
 Monroe County Airport
740-472-1882 Airport management, Aviation fuel, Aircraft parking (ramp or tiedown), Hangar leasing / sales, Passenger terminal and lounge, Rental cars, Public telephone, ...

More info about Monroe County Airport
Phillips 66
100LL Jet A
FS $4.83 $4.00 
 Updated 16-Mar-2021
 
   write
FS=Full service
Update Fuel Prices
 

Would you like to see your business listed on this page?

 If your business provides an interesting product or service to pilots, flight crews, aircraft, or users of the Monroe County Airport, you should consider listing it here.  To start the listing process, click on the button below
 
Add a business
 

Other Pages about Monroe County Airport

Update a link
 
Copyright © AirNav, LLC. All rights reserved. Privacy Policy  Contact